createdAt,value
2018-05-15T00:01:04.944Z,29.60
2018-05-15T00:03:32.659Z,28.77
2018-05-15T00:06:00.259Z,28.93
2018-05-15T00:08:27.867Z,27.77
2018-05-15T00:10:55.506Z,30.87
2018-05-15T00:13:23.097Z,34.10
2018-05-15T00:15:50.684Z,31.30
2018-05-15T00:18:18.495Z,31.53
2018-05-15T00:20:46.076Z,32.13
2018-05-15T00:23:13.734Z,31.40
2018-05-15T00:25:41.455Z,31.23
2018-05-15T00:28:09.134Z,32.83
2018-05-15T00:30:36.884Z,33.27
2018-05-15T00:33:04.504Z,33.60
2018-05-15T00:35:32.207Z,31.27
2018-05-15T00:38:00.020Z,38.80
2018-05-15T00:40:27.606Z,31.00
2018-05-15T00:42:55.291Z,31.03
2018-05-15T00:45:22.940Z,31.33
2018-05-15T00:47:50.517Z,29.10
2018-05-15T00:50:18.114Z,31.97
2018-05-15T00:52:45.716Z,30.13
2018-05-15T00:55:25.033Z,30.73
2018-05-15T00:57:52.628Z,35.37
2018-05-15T01:00:20.201Z,32.47
2018-05-15T01:02:48.060Z,29.37
2018-05-15T01:05:15.647Z,31.57
2018-05-15T01:07:43.285Z,29.70
2018-05-15T01:10:11.039Z,27.00
2018-05-15T01:12:38.617Z,27.13
2018-05-15T01:15:06.201Z,27.13
2018-05-15T01:17:33.805Z,27.23
2018-05-15T01:20:01.433Z,26.77
2018-05-15T01:22:29.029Z,25.43
2018-05-15T01:24:56.781Z,28.17
2018-05-15T01:27:24.375Z,20.00
2018-05-15T01:29:51.949Z,20.20
2018-05-15T01:32:19.716Z,19.23
2018-05-15T01:34:47.300Z,20.53
2018-05-15T01:37:14.937Z,19.40
2018-05-15T01:39:42.523Z,19.43
2018-05-15T01:42:10.111Z,19.03
2018-05-15T01:44:37.677Z,19.23
2018-05-15T01:47:05.240Z,18.93
2018-05-15T01:49:32.820Z,18.47
2018-05-15T01:52:00.391Z,19.87
2018-05-15T01:54:27.965Z,19.30
2018-05-15T01:56:55.544Z,18.23
2018-05-15T01:59:23.104Z,19.47
2018-05-15T02:01:50.905Z,20.03
2018-05-15T02:04:18.453Z,19.40
2018-05-15T02:06:46.242Z,19.77
2018-05-15T02:09:13.816Z,24.10
2018-05-15T02:11:41.424Z,22.47
2018-05-15T02:14:09.008Z,24.13
2018-05-15T02:16:36.592Z,21.20
2018-05-15T02:19:04.200Z,21.90
2018-05-15T02:21:31.760Z,20.57
2018-05-15T02:23:59.824Z,21.13
2018-05-15T02:26:27.439Z,20.67
2018-05-15T02:28:55.033Z,24.20
2018-05-15T02:31:23.029Z,24.33
2018-05-15T02:33:50.604Z,23.00
2018-05-15T02:36:18.183Z,22.27
2018-05-15T02:38:45.829Z,23.70
2018-05-15T02:41:13.453Z,21.90
2018-05-15T02:43:41.021Z,22.37
2018-05-15T02:46:08.712Z,22.73
2018-05-15T02:48:36.305Z,23.13
2018-05-15T02:51:04.069Z,24.20
2018-05-15T02:53:31.652Z,22.43
2018-05-15T02:55:59.217Z,23.20
2018-05-15T02:58:26.879Z,20.33
2018-05-15T03:00:54.484Z,21.50
2018-05-15T03:03:22.054Z,20.10
2018-05-15T03:05:50.319Z,21.13
2018-05-15T03:08:18.738Z,19.20
2018-05-15T03:10:46.329Z,20.63
2018-05-15T03:13:13.919Z,20.97
2018-05-15T03:15:41.576Z,21.93
2018-05-15T03:18:09.371Z,26.13
2018-05-15T03:20:37.088Z,28.47
2018-05-15T03:23:04.685Z,20.47
2018-05-15T03:25:32.314Z,23.07
2018-05-15T03:27:59.904Z,22.20
2018-05-15T03:30:27.464Z,19.37
2018-05-15T03:32:55.251Z,21.27
2018-05-15T03:35:23.199Z,19.60
2018-05-15T03:37:50.782Z,18.17
2018-05-15T03:40:18.634Z,17.50
2018-05-15T03:42:46.253Z,17.97
2018-05-15T03:45:13.855Z,20.40
2018-05-15T03:47:41.545Z,18.47
2018-05-15T03:50:09.372Z,19.07
2018-05-15T03:52:37.207Z,18.07
2018-05-15T03:55:04.918Z,19.27
2018-05-15T03:57:32.511Z,16.37
2018-05-15T04:00:00.141Z,22.03
2018-05-15T04:05:44.430Z,20.30
2018-05-15T04:08:14.918Z,18.07
2018-05-15T04:10:42.490Z,17.63
2018-05-15T04:13:10.070Z,16.67
2018-05-15T04:15:37.727Z,16.30
2018-05-15T04:18:05.697Z,17.43
2018-05-15T04:20:33.509Z,24.10
2018-05-15T04:23:01.089Z,33.00
2018-05-15T04:25:28.854Z,25.37
2018-05-15T04:27:56.665Z,24.53
2018-05-15T04:30:24.427Z,22.07
2018-05-15T04:32:52.330Z,23.17
2018-05-15T04:35:20.179Z,17.33
2018-05-15T04:37:47.923Z,16.47
2018-05-15T04:40:15.908Z,18.33
2018-05-15T04:42:43.551Z,16.30
2018-05-15T04:45:11.394Z,15.07
2018-05-15T04:47:38.972Z,16.00
2018-05-15T04:50:07.332Z,13.80
2018-05-15T04:52:35.753Z,14.73
2018-05-15T04:55:04.065Z,14.60
2018-05-15T04:57:31.624Z,17.63
2018-05-15T04:59:59.553Z,14.63
2018-05-15T05:02:27.163Z,15.43
2018-05-15T05:04:54.768Z,17.67
2018-05-15T05:07:22.358Z,15.80
2018-05-15T05:09:49.992Z,14.73
2018-05-15T05:12:17.585Z,14.53
2018-05-15T05:14:45.166Z,13.83
2018-05-15T05:17:12.757Z,15.30
2018-05-15T05:19:40.320Z,14.77
2018-05-15T05:22:08.177Z,11.87
2018-05-15T05:24:35.990Z,11.27
2018-05-15T05:27:03.670Z,16.63
2018-05-15T05:29:31.334Z,10.87
2018-05-15T05:31:58.896Z,10.30
2018-05-15T05:34:26.583Z,11.03
2018-05-15T05:36:54.381Z,10.43
2018-05-15T05:39:21.963Z,18.17
2018-05-15T05:41:49.526Z,9.87
2018-05-15T05:44:17.093Z,9.77
2018-05-15T05:46:44.728Z,15.73
2018-05-15T05:49:12.562Z,11.73
2018-05-15T05:51:40.156Z,10.60
2018-05-15T05:54:07.744Z,12.57
2018-05-15T05:56:35.387Z,15.13
2018-05-15T05:59:02.952Z,10.77
2018-05-15T06:01:30.532Z,14.97
2018-05-15T06:03:58.101Z,12.47
2018-05-15T06:06:25.697Z,8.80
2018-05-15T06:08:53.465Z,9.87
2018-05-15T06:11:21.234Z,13.57
2018-05-15T06:13:49.059Z,10.67
2018-05-15T06:16:16.876Z,9.50
2018-05-15T06:18:44.691Z,11.73
2018-05-15T06:21:12.297Z,9.67
2018-05-15T06:23:39.918Z,10.03
2018-05-15T06:26:07.676Z,10.90
2018-05-15T06:28:35.564Z,8.00
2018-05-15T06:31:03.382Z,13.50
2018-05-15T06:33:32.518Z,10.77
2018-05-15T06:36:00.427Z,11.57
2018-05-15T06:38:28.458Z,11.57
2018-05-15T06:40:56.439Z,11.33
2018-05-15T06:43:24.188Z,16.67
2018-05-15T06:45:52.034Z,12.10
2018-05-15T06:48:20.153Z,10.97
2018-05-15T06:50:50.091Z,10.77
2018-05-15T06:53:18.100Z,10.67
2018-05-15T06:55:46.339Z,13.30
2018-05-15T06:58:13.897Z,9.10
2018-05-15T07:00:41.719Z,7.07
2018-05-15T07:03:09.436Z,7.40
2018-05-15T07:05:37.006Z,7.53
2018-05-15T07:08:04.601Z,7.23
2018-05-15T07:10:32.175Z,7.47
2018-05-15T07:12:59.935Z,9.20
2018-05-15T07:15:27.500Z,6.53
2018-05-15T07:17:55.105Z,9.00
2018-05-15T07:20:22.889Z,7.27
2018-05-15T07:22:50.457Z,8.47
2018-05-15T07:25:18.045Z,10.10
2018-05-15T07:27:45.607Z,7.00
2018-05-15T07:30:13.249Z,6.30
2018-05-15T07:32:40.832Z,6.73
2018-05-15T07:35:08.452Z,9.63
2018-05-15T07:37:36.009Z,8.87
2018-05-15T07:40:03.609Z,13.27
2018-05-15T07:42:31.188Z,29.37
2018-05-15T07:44:58.748Z,10.47
2018-05-15T07:47:26.587Z,9.37
2018-05-15T07:49:54.415Z,7.60
2018-05-15T07:52:22.052Z,7.07
2018-05-15T07:54:49.622Z,10.30
2018-05-15T07:57:17.360Z,8.13
2018-05-15T07:59:44.965Z,7.77
2018-05-15T08:02:12.628Z,8.47
2018-05-15T08:04:40.290Z,13.83
2018-05-15T08:07:07.941Z,6.90
2018-05-15T08:09:35.664Z,10.63
2018-05-15T08:12:03.225Z,11.20
2018-05-15T08:14:30.794Z,9.03
2018-05-15T08:16:58.372Z,8.57
2018-05-15T08:19:26.222Z,9.57
2018-05-15T08:21:53.786Z,9.13
2018-05-15T08:24:21.362Z,12.97
2018-05-15T08:26:49.085Z,12.47
2018-05-15T08:29:16.645Z,15.07
2018-05-15T08:31:44.413Z,8.50
2018-05-15T08:34:11.976Z,7.00
2018-05-15T08:36:39.540Z,7.67
2018-05-15T08:39:07.368Z,8.57
2018-05-15T08:41:35.084Z,11.70
2018-05-15T08:44:02.726Z,6.23
2018-05-15T08:46:30.345Z,8.50
2018-05-15T08:48:58.139Z,12.63
2018-05-15T08:51:25.743Z,10.77
2018-05-15T08:53:53.337Z,7.63
2018-05-15T08:56:20.929Z,6.53
2018-05-15T08:58:48.501Z,7.13
2018-05-15T09:01:16.128Z,7.50
2018-05-15T09:03:43.693Z,10.10
2018-05-15T09:06:11.238Z,17.07
2018-05-15T09:08:38.952Z,8.50
2018-05-15T09:11:06.539Z,12.53
2018-05-15T09:13:34.109Z,12.83
2018-05-15T09:16:01.684Z,10.67
2018-05-15T09:18:29.365Z,10.73
2018-05-15T09:20:57.176Z,10.73
2018-05-15T09:23:24.754Z,7.23
2018-05-15T09:25:52.320Z,9.63
2018-05-15T09:28:19.929Z,11.03
2018-05-15T09:30:47.513Z,6.27
2018-05-15T09:33:15.222Z,6.87
2018-05-15T09:35:42.862Z,7.80
2018-05-15T09:38:10.436Z,7.10
2018-05-15T09:40:38.008Z,7.20
2018-05-15T09:43:05.591Z,15.90
2018-05-15T09:45:34.154Z,7.57
2018-05-15T09:48:01.974Z,9.77
2018-05-15T09:50:29.528Z,9.47
2018-05-15T09:52:57.082Z,9.67
2018-05-15T09:55:24.618Z,8.90
2018-05-15T09:57:52.445Z,9.20
2018-05-15T10:00:25.697Z,10.53
2018-05-15T10:02:53.503Z,8.73
2018-05-15T10:05:21.060Z,13.03
2018-05-15T10:07:48.902Z,11.63
2018-05-15T10:10:16.571Z,14.37
2018-05-15T10:12:44.375Z,11.77
2018-05-15T10:15:12.187Z,9.97
2018-05-15T10:17:39.748Z,9.60
2018-05-15T10:20:07.413Z,12.33
2018-05-15T10:22:35.051Z,9.77
2018-05-15T10:25:02.605Z,11.10
2018-05-15T10:27:30.195Z,12.87
2018-05-15T10:29:58.047Z,12.03
2018-05-15T10:32:25.813Z,12.53
2018-05-15T10:34:53.384Z,11.77
2018-05-15T10:37:21.587Z,10.10
2018-05-15T10:39:49.169Z,10.13
2018-05-15T10:42:16.733Z,13.43
2018-05-15T10:44:44.299Z,16.60
2018-05-15T10:47:11.872Z,11.17
2018-05-15T10:49:39.497Z,12.17
2018-05-15T10:52:07.073Z,11.37
2018-05-15T10:54:34.684Z,9.13
2018-05-15T10:57:02.271Z,10.00
2018-05-15T10:59:30.115Z,12.73
2018-05-15T11:01:57.662Z,12.00
2018-05-15T11:04:25.215Z,39.27
2018-05-15T11:06:52.973Z,9.40
2018-05-15T11:09:20.528Z,9.43
2018-05-15T11:11:48.145Z,10.87
2018-05-15T11:14:15.712Z,18.67
2018-05-15T11:16:43.445Z,9.63
2018-05-15T11:19:23.013Z,8.40
2018-05-15T11:22:02.307Z,11.13
2018-05-15T11:24:41.589Z,8.13
2018-05-15T11:27:09.140Z,7.87
2018-05-15T11:29:36.709Z,10.83
2018-05-15T11:32:04.479Z,7.33
2018-05-15T11:34:32.296Z,9.73
2018-05-15T11:36:59.888Z,9.70
2018-05-15T11:39:27.468Z,10.53
2018-05-15T11:41:55.165Z,10.30
2018-05-15T11:44:22.676Z,17.20
2018-05-15T11:46:50.278Z,9.33
2018-05-15T11:49:18.980Z,12.57
2018-05-15T11:51:46.803Z,9.63
2018-05-15T11:54:13.553Z,15.87
2018-05-15T11:56:41.145Z,11.07
2018-05-15T11:59:08.978Z,9.87
2018-05-15T12:01:36.572Z,8.20
2018-05-15T12:04:04.442Z,14.17
2018-05-15T12:06:32.072Z,15.47
2018-05-15T12:08:59.890Z,9.37
2018-05-15T12:11:27.669Z,8.10
2018-05-15T12:13:55.236Z,10.80
2018-05-15T12:16:22.856Z,19.23
2018-05-15T12:18:50.533Z,8.20
2018-05-15T12:21:18.344Z,15.37
2018-05-15T12:23:46.118Z,9.87
2018-05-15T12:26:13.673Z,7.80
2018-05-15T12:28:41.597Z,12.80
2018-05-15T12:31:09.156Z,7.73
2018-05-15T12:33:36.768Z,8.80
2018-05-15T12:36:04.552Z,9.73
2018-05-15T12:38:32.146Z,9.17
2018-05-15T12:40:59.863Z,8.43
2018-05-15T12:43:27.426Z,9.13
2018-05-15T12:45:55.019Z,15.57
2018-05-15T12:48:22.594Z,11.03
2018-05-15T12:50:50.236Z,14.77
2018-05-15T12:53:17.829Z,9.77
2018-05-15T12:55:45.391Z,10.40
2018-05-15T12:58:12.979Z,10.00
2018-05-15T13:00:46.698Z,11.70
2018-05-15T13:03:14.614Z,9.87
2018-05-15T13:05:42.475Z,10.30
2018-05-15T13:08:10.209Z,8.40
2018-05-15T13:10:38.027Z,10.90
2018-05-15T13:13:05.624Z,17.77
2018-05-15T13:15:33.227Z,10.07
2018-05-15T13:18:00.987Z,8.57
2018-05-15T13:20:28.596Z,9.50
2018-05-15T13:22:56.180Z,10.93
2018-05-15T13:25:23.966Z,7.53
2018-05-15T13:27:51.984Z,7.53
2018-05-15T13:30:19.664Z,9.57
2018-05-15T13:32:47.441Z,8.63
2018-05-15T13:35:15.116Z,9.23
2018-05-15T13:37:42.661Z,15.30
2018-05-15T13:40:10.245Z,8.40
2018-05-15T13:42:38.065Z,8.70
2018-05-15T13:45:05.648Z,7.87
2018-05-15T13:47:33.399Z,7.40
2018-05-15T13:50:00.990Z,11.23
2018-05-15T13:52:28.649Z,7.57
2018-05-15T13:54:56.235Z,6.13
2018-05-15T13:57:24.072Z,9.97
2018-05-15T13:59:51.659Z,10.73
2018-05-15T14:02:19.303Z,9.47
2018-05-15T14:04:47.031Z,10.20
2018-05-15T14:07:14.632Z,11.17
2018-05-15T14:09:43.067Z,12.50
2018-05-15T14:12:10.786Z,10.10
2018-05-15T14:14:38.439Z,5.80
2018-05-15T14:17:06.012Z,8.40
2018-05-15T14:19:33.644Z,9.60
2018-05-15T14:22:01.248Z,8.37
2018-05-15T14:24:28.806Z,6.23
2018-05-15T14:26:56.398Z,7.80
2018-05-15T14:29:24.000Z,20.10
2018-05-15T14:31:51.807Z,9.10
2018-05-15T14:34:19.653Z,13.80
2018-05-15T14:36:47.341Z,13.83
2018-05-15T14:39:15.184Z,12.73
2018-05-15T14:41:54.648Z,7.30
2018-05-15T14:44:22.303Z,6.07
2018-05-15T14:46:49.911Z,8.30
2018-05-15T14:49:17.636Z,9.10
2018-05-15T14:51:45.386Z,11.23
2018-05-15T14:54:12.969Z,7.27
2018-05-15T14:56:40.553Z,7.07
2018-05-15T14:59:08.368Z,10.93
2018-05-15T15:01:35.958Z,10.33
2018-05-15T15:04:03.616Z,10.33
2018-05-15T15:06:31.280Z,9.43
2018-05-15T15:08:58.953Z,7.27
2018-05-15T15:11:26.585Z,9.87
2018-05-15T15:13:54.164Z,6.90
2018-05-15T15:16:21.756Z,6.53
2018-05-15T15:18:49.344Z,9.77
2018-05-15T15:21:16.929Z,13.40
2018-05-15T15:23:44.817Z,9.97
2018-05-15T15:26:12.568Z,10.10
2018-05-15T15:28:40.203Z,8.20
2018-05-15T15:31:07.786Z,10.03
2018-05-15T15:33:35.485Z,7.43
2018-05-15T15:36:03.145Z,10.60
2018-05-15T15:38:30.960Z,8.37
2018-05-15T15:40:58.779Z,7.77
2018-05-15T15:43:26.510Z,7.70
2018-05-15T15:45:54.103Z,8.40
2018-05-15T15:48:21.692Z,7.03
2018-05-15T15:50:49.451Z,6.60
2018-05-15T15:53:17.269Z,6.37
2018-05-15T15:55:44.961Z,10.20
2018-05-15T15:58:12.491Z,9.93
2018-05-15T16:00:40.101Z,9.90
2018-05-15T16:03:07.681Z,6.87
2018-05-15T16:05:35.269Z,8.40
2018-05-15T16:08:03.077Z,6.10
2018-05-15T16:10:30.728Z,8.07
2018-05-15T16:12:58.308Z,6.27
2018-05-15T16:15:25.901Z,7.67
2018-05-15T16:17:54.093Z,9.93
2018-05-15T16:20:21.672Z,8.17
2018-05-15T16:22:49.402Z,13.07
2018-05-15T16:25:17.106Z,9.33
2018-05-15T16:27:44.725Z,9.47
2018-05-15T16:30:12.312Z,9.87
2018-05-15T16:32:39.958Z,10.97
2018-05-15T16:35:07.665Z,9.70
2018-05-15T16:37:35.363Z,7.77
2018-05-15T16:40:02.920Z,9.33
2018-05-15T16:42:30.525Z,7.17
2018-05-15T16:44:58.100Z,7.27
2018-05-15T16:47:25.700Z,12.20
2018-05-15T16:49:53.272Z,8.30
2018-05-15T16:52:21.107Z,8.23
2018-05-15T16:54:48.702Z,12.40
2018-05-15T16:57:16.471Z,10.20
2018-05-15T16:59:44.048Z,7.47
2018-05-15T17:02:11.697Z,8.30
2018-05-15T17:04:39.287Z,10.63
2018-05-15T17:07:07.097Z,13.03
2018-05-15T17:09:34.728Z,8.43
2018-05-15T17:12:02.403Z,9.73
2018-05-15T17:14:29.984Z,6.40
2018-05-15T17:16:57.784Z,12.07
2018-05-15T17:19:25.382Z,9.80
2018-05-15T17:21:52.959Z,7.50
2018-05-15T17:24:20.533Z,8.33
2018-05-15T17:26:48.169Z,9.27
2018-05-15T17:29:15.974Z,7.87
2018-05-15T17:31:43.865Z,9.93
2018-05-15T17:34:11.620Z,9.43
2018-05-15T17:36:39.431Z,9.93
2018-05-15T17:39:07.249Z,10.23
2018-05-15T17:41:34.833Z,9.30
2018-05-15T17:44:02.442Z,13.40
2018-05-15T17:46:30.031Z,8.57
2018-05-15T17:48:57.622Z,8.73
2018-05-15T17:51:25.439Z,9.03
2018-05-15T17:53:53.258Z,7.00
2018-05-15T17:56:21.077Z,10.37
2018-05-15T17:58:48.683Z,10.63
2018-05-15T18:01:16.909Z,17.20
2018-05-15T18:03:45.109Z,7.80
2018-05-15T18:06:12.700Z,10.73
2018-05-15T18:08:40.367Z,7.97
2018-05-15T18:11:08.329Z,5.70
2018-05-15T18:13:36.151Z,9.03
2018-05-15T18:16:03.966Z,10.03
2018-05-15T18:18:31.540Z,9.03
2018-05-15T18:20:59.145Z,8.10
2018-05-15T18:23:26.719Z,7.77
2018-05-15T18:25:54.413Z,12.10
2018-05-15T18:28:22.014Z,13.30
2018-05-15T18:30:49.875Z,10.07
2018-05-15T18:33:17.602Z,13.63
2018-05-15T18:35:45.322Z,8.23
2018-05-15T18:38:13.030Z,8.07
2018-05-15T18:40:40.849Z,11.40
2018-05-15T18:43:08.684Z,9.80
2018-05-15T18:45:36.224Z,9.37
2018-05-15T18:48:03.818Z,5.93
2018-05-15T18:50:31.413Z,7.13
2018-05-15T18:52:58.984Z,9.90
2018-05-15T18:55:26.569Z,10.10
2018-05-15T18:57:54.211Z,11.37
2018-05-15T19:00:21.829Z,14.33
2018-05-15T19:02:49.539Z,8.20
2018-05-15T19:05:17.117Z,7.57
2018-05-15T19:07:44.695Z,8.63
2018-05-15T19:10:12.285Z,10.30
2018-05-15T19:12:39.873Z,10.20
2018-05-15T19:15:07.455Z,11.07
2018-05-15T19:17:35.228Z,10.47
2018-05-15T19:20:02.914Z,11.13
2018-05-15T19:22:30.420Z,7.43
2018-05-15T19:24:58.004Z,11.83
2018-05-15T19:27:25.595Z,15.27
2018-05-15T19:29:53.169Z,11.63
2018-05-15T19:32:20.807Z,8.63
2018-05-15T19:34:54.128Z,7.93
2018-05-15T19:37:21.705Z,9.90
2018-05-15T19:39:49.337Z,7.97
2018-05-15T19:42:16.993Z,7.23
2018-05-15T19:44:44.569Z,8.60
2018-05-15T19:47:12.157Z,7.10
2018-05-15T19:49:39.973Z,11.37
2018-05-15T19:52:07.608Z,8.60
2018-05-15T19:54:35.204Z,9.97
2018-05-15T19:57:02.798Z,9.30
2018-05-15T19:59:30.646Z,7.83
2018-05-15T20:01:58.265Z,12.43
2018-05-15T20:04:25.856Z,13.20
2018-05-15T20:06:53.441Z,13.97
2018-05-15T20:09:21.189Z,9.40
2018-05-15T20:11:48.842Z,8.53
2018-05-15T20:14:16.432Z,9.77
2018-05-15T20:16:44.150Z,8.20
2018-05-15T20:19:11.760Z,9.50
2018-05-15T20:21:39.346Z,10.50
2018-05-15T20:24:07.128Z,12.33
2018-05-15T20:26:34.852Z,9.03
2018-05-15T20:29:02.441Z,8.97
2018-05-15T20:31:30.281Z,8.53
2018-05-15T20:33:57.872Z,7.63
2018-05-15T20:36:25.686Z,9.90
2018-05-15T20:38:53.277Z,11.00
2018-05-15T20:41:20.864Z,7.57
2018-05-15T20:43:48.672Z,10.23
2018-05-15T20:46:16.261Z,10.67
2018-05-15T20:48:43.918Z,8.43
2018-05-15T20:51:11.516Z,11.20
2018-05-15T20:53:39.144Z,11.70
2018-05-15T20:56:06.917Z,9.27
2018-05-15T20:58:34.686Z,11.83
2018-05-15T21:01:02.312Z,9.87
2018-05-15T21:03:29.885Z,9.37
2018-05-15T21:05:57.614Z,10.70
2018-05-15T21:08:25.453Z,9.83
2018-05-15T21:10:53.029Z,6.03
2018-05-15T21:13:20.613Z,8.13
2018-05-15T21:15:48.192Z,8.53
2018-05-15T21:18:15.868Z,9.50
2018-05-15T21:20:43.647Z,11.30
2018-05-15T21:23:11.210Z,9.90
2018-05-15T21:25:38.906Z,7.60
2018-05-15T21:28:06.488Z,13.63
2018-05-15T21:30:34.081Z,9.60
2018-05-15T21:33:01.737Z,10.70
2018-05-15T21:35:29.439Z,9.27
2018-05-15T21:37:57.270Z,9.93
2018-05-15T21:40:24.865Z,10.23
2018-05-15T21:42:52.533Z,9.87
2018-05-15T21:45:20.144Z,11.73
2018-05-15T21:47:47.925Z,9.67
2018-05-15T21:50:15.542Z,11.53
2018-05-15T21:52:43.250Z,9.67
2018-05-15T21:55:10.998Z,10.53
2018-05-15T21:57:38.588Z,12.07
2018-05-15T22:00:06.435Z,9.77
2018-05-15T22:02:34.254Z,9.67
2018-05-15T22:05:01.841Z,10.40
2018-05-15T22:07:29.589Z,11.70
2018-05-15T22:09:57.280Z,9.83
2018-05-15T22:12:36.928Z,8.27
2018-05-15T22:15:16.341Z,10.50
2018-05-15T22:17:55.605Z,10.17
2018-05-15T22:20:35.075Z,7.93
2018-05-15T22:23:02.263Z,9.63
2018-05-15T22:25:30.081Z,11.00
2018-05-15T22:27:57.818Z,6.70
2018-05-15T22:30:25.584Z,10.37
2018-05-15T22:32:53.183Z,9.37
2018-05-15T22:35:20.772Z,9.27
2018-05-15T22:37:48.400Z,7.53
2018-05-15T22:40:16.188Z,9.97
2018-05-15T22:42:43.802Z,7.77
2018-05-15T22:45:11.400Z,8.73
2018-05-15T22:47:38.980Z,7.83
2018-05-15T22:50:06.577Z,11.47
2018-05-15T22:52:34.296Z,9.20
2018-05-15T22:55:01.969Z,9.33
2018-05-15T22:57:29.559Z,8.40
2018-05-15T22:59:57.337Z,9.43
2018-05-15T23:02:25.035Z,5.53
2018-05-15T23:04:52.697Z,8.33
2018-05-15T23:07:20.288Z,10.47
2018-05-15T23:09:48.108Z,6.77
2018-05-15T23:12:15.747Z,7.53
2018-05-15T23:14:43.344Z,7.23
2018-05-15T23:17:10.920Z,8.00
2018-05-15T23:19:38.573Z,7.83
2018-05-15T23:22:06.371Z,8.73
2018-05-15T23:24:33.961Z,8.53
2018-05-15T23:27:01.537Z,7.00
2018-05-15T23:29:29.191Z,8.10
2018-05-15T23:31:56.776Z,10.50
2018-05-15T23:34:24.504Z,10.20
2018-05-15T23:36:52.109Z,9.23
2018-05-15T23:39:19.705Z,9.57
2018-05-15T23:41:47.297Z,10.33
2018-05-15T23:44:14.873Z,11.20
2018-05-15T23:46:42.626Z,10.27
2018-05-15T23:49:10.214Z,9.13
2018-05-15T23:51:37.900Z,9.73
2018-05-15T23:54:05.732Z,9.67
2018-05-15T23:56:33.359Z,8.73
2018-05-15T23:59:00.990Z,12.57
